Terminal Aerodrome Forecast
Issued by NWS

Home | Current Version | Previous Version | Graphics & Text | Print | Product List | Glossary On
Versions: 1 2 3 4 5 6 7 8 9 10 11 12 13 14 15 16 17 18 19 20 21 22 23
000
FTUS43 KLOT 180801 AAA
TAFDPA
TAF AMD
KDPA 180801Z 1808/1906 09003KT P6SM SKC
     FM181300 08013G20KT P6SM BKN050 OVC120
     FM181600 06014G21KT 4SM -SHRA VCTS OVC025CB
      TEMPO 1816/1819 2SM TSRAGS
     FM181900 01012G20KT 1 1/2SM -DZRA BR OVC006=

USA.gov is the U.S. government's official web portal to all federal, state and local government web resources and services.